Time;durP1;ratioP1;P1;durP2;ratioP2;P2;SDS_P1;SDS_P2;PMS_P1;PMS_P2;Temp;Humidity;BMP_temperature;BMP_pressure;BME280_temperature;BME280_humidity;BME280_pressure;Samples;Min_cycle;Max_cycle;Signal;HPM_P1;HPM_P2
2022/10/17 00:01:37;;;;;;;24.25;15.43;;;;;;;13.76;66.57;99473.06;5069894;28;20028;-73
2022/10/17 00:04:03;;;;;;;25.23;15.38;;;;;;;13.73;66.50;99481.94;5051936;28;20064;-73
2022/10/17 00:06:28;;;;;;;22.98;15.43;;;;;;;13.69;66.89;99484.47;5069854;28;20501;-73
2022/10/17 00:08:53;;;;;;;29.60;18.58;;;;;;;13.66;66.90;99491.38;5069056;28;20035;-73
2022/10/17 00:11:22;;;;;;;28.15;17.58;;;;;;;13.63;66.97;99480.94;5063907;28;20115;-74
2022/10/17 00:13:48;;;;;;;33.63;20.67;;;;;;;13.61;67.17;99474.91;5035339;28;20075;-73
2022/10/17 00:16:21;;;;;;;25.33;16.00;;;;;;;13.59;67.12;99482.63;5061418;28;20017;-72
2022/10/17 00:18:46;;;;;;;25.92;14.77;;;;;;;13.59;67.58;99484.56;5055732;28;20058;-71
2022/10/17 00:21:17;;;;;;;24.17;14.35;;;;;;;13.58;67.21;99488.44;5061003;28;20078;-72
2022/10/17 00:23:42;;;;;;;20.45;13.98;;;;;;;13.57;67.45;99493.13;5069465;28;20581;-72
2022/10/17 00:26:09;;;;;;;21.35;13.32;;;;;;;13.54;67.64;99494.53;5049227;28;20037;-73
2022/10/17 00:28:34;;;;;;;19.52;13.10;;;;;;;13.54;67.58;99500.03;5070028;28;20059;-72
2022/10/17 00:31:04;;;;;;;20.15;13.07;;;;;;;13.54;67.54;99505.53;5071268;28;20033;-72
2022/10/17 00:33:30;;;;;;;21.33;13.02;;;;;;;13.55;67.82;99495.34;5069357;28;20550;-72
2022/10/17 00:36:06;;;;;;;19.15;13.02;;;;;;;13.55;67.76;99498.13;5069536;28;20394;-72
2022/10/17 00:38:31;;;;;;;20.05;12.57;;;;;;;13.54;67.80;99486.25;5070754;28;20020;-72
2022/10/17 00:40:57;;;;;;;19.95;12.85;;;;;;;13.52;68.09;99498.69;5073518;28;20558;-72
2022/10/17 00:43:22;;;;;;;21.45;12.65;;;;;;;13.51;68.21;99495.09;5055489;28;20478;-72
2022/10/17 00:45:48;;;;;;;20.38;12.32;;;;;;;13.51;68.14;99497.84;5073825;28;20291;-72
2022/10/17 00:48:14;;;;;;;18.98;12.18;;;;;;;13.53;68.33;99494.81;5093624;28;20027;-72
2022/10/17 00:50:43;;;;;;;16.92;11.80;;;;;;;13.57;68.34;99495.06;5093013;28;20042;-72
2022/10/17 00:53:09;;;;;;;18.38;11.85;;;;;;;13.55;68.27;99496.16;5093228;28;20032;-72
2022/10/17 00:55:41;;;;;;;17.30;12.23;;;;;;;13.60;68.57;99495.31;5092880;28;20024;-72
2022/10/17 00:58:07;;;;;;;19.88;12.70;;;;;;;13.62;68.29;99495.84;5075045;28;20034;-72
2022/10/17 01:00:32;;;;;;;18.20;12.27;;;;;;;13.64;68.65;99493.63;5082479;28;20741;-71
2022/10/17 01:02:58;;;;;;;19.38;12.30;;;;;;;13.64;68.53;99492.78;5071120;28;20039;-72
2022/10/17 01:05:23;;;;;;;19.00;12.35;;;;;;;13.64;68.65;99492.78;5072403;28;20020;-72
2022/10/17 01:07:51;;;;;;;17.88;12.05;;;;;;;13.65;68.46;99489.72;5072701;28;20478;-72
2022/10/17 01:10:17;;;;;;;16.40;11.32;;;;;;;13.66;68.63;99494.13;5072873;28;20028;-72
2022/10/17 01:12:51;;;;;;;18.70;11.48;;;;;;;13.65;68.49;99500.75;5072706;28;20362;-72
2022/10/17 01:15:32;;;;;;;17.35;11.18;;;;;;;13.63;68.51;99503.00;5072720;28;20028;-72
2022/10/17 01:18:14;;;;;;;17.48;11.18;;;;;;;13.62;68.55;99506.88;5072614;28;20024;-72
2022/10/17 01:21:00;;;;;;;17.83;10.82;;;;;;;13.61;69.07;99493.34;5072670;28;20034;-72
2022/10/17 01:23:48;;;;;;;16.70;10.40;;;;;;;13.61;68.62;99502.47;5072487;28;20483;-72
2022/10/17 01:26:16;;;;;;;16.05;10.73;;;;;;;13.61;68.50;99504.38;5072934;28;20036;-71
2022/10/17 01:29:09;;;;;;;15.60;10.80;;;;;;;13.60;68.88;99499.97;5075875;28;20044;-72
2022/10/17 01:31:38;;;;;;;17.63;10.57;;;;;;;13.62;68.85;99497.75;5092549;28;20028;-72
2022/10/17 01:34:17;;;;;;;16.55;10.77;;;;;;;13.63;68.83;99491.13;5087706;28;20036;-72
2022/10/17 01:37:03;;;;;;;15.40;10.60;;;;;;;13.61;68.92;99483.16;5091886;28;20081;-72
2022/10/17 01:39:48;;;;;;;15.32;10.20;;;;;;;13.63;69.13;99485.63;5091419;28;20020;-72
2022/10/17 01:42:41;;;;;;;15.00;10.57;;;;;;;13.63;68.76;99485.63;5092614;28;20063;-72
2022/10/17 01:45:14;;;;;;;15.18;10.73;;;;;;;13.67;68.83;99489.44;5060899;28;20033;-72
2022/10/17 01:47:41;;;;;;;17.45;11.93;;;;;;;13.68;68.38;99489.13;5091939;28;20081;-72
2022/10/17 01:50:47;;;;;;;16.05;10.77;;;;;;;13.69;68.76;99481.72;5091629;28;20462;-72
2022/10/17 01:53:18;;;;;;;16.17;10.68;;;;;;;13.70;68.67;99481.41;5091435;28;20062;-71
2022/10/17 01:55:47;;;;;;;17.05;10.10;;;;;;;13.69;68.55;99489.97;5081263;28;20032;-72
2022/10/17 01:58:30;;;;;;;17.13;10.27;;;;;;;13.67;68.70;99484.75;5062539;28;20028;-71
2022/10/17 02:01:00;;;;;;;15.75;10.48;;;;;;;13.68;68.75;99491.09;5061157;28;20470;-72
2022/10/17 02:03:27;;;;;;;14.63;10.40;;;;;;;13.67;68.55;99498.53;5077598;28;20393;-73
2022/10/17 02:05:53;;;;;;;16.92;10.65;;;;;;;13.67;68.60;99492.19;5091900;28;20020;-72
2022/10/17 02:08:40;;;;;;;15.95;11.02;;;;;;;13.64;68.68;99493.63;5091893;28;20020;-72
2022/10/17 02:11:26;;;;;;;17.88;11.32;;;;;;;13.62;68.29;99492.25;5092049;28;20032;-72
2022/10/17 02:14:24;;;;;;;20.48;11.20;;;;;;;13.59;68.35;99490.91;5091375;28;20078;-72
2022/10/17 02:16:55;;;;;;;16.42;11.02;;;;;;;13.58;68.45;99500.28;5064100;28;20422;-71
2022/10/17 02:19:35;;;;;;;17.80;12.25;;;;;;;13.53;68.25;99503.09;5065872;28;20534;-72
2022/10/17 02:22:10;;;;;;;26.42;15.63;;;;;;;13.50;68.14;99506.44;5067529;28;20028;-72
2022/10/17 02:24:52;;;;;;;27.52;16.45;;;;;;;13.46;68.20;99502.59;5071547;28;20044;-72
2022/10/17 02:27:33;;;;;;;27.40;16.98;;;;;;;13.43;68.17;99508.69;5071311;28;20035;-72
2022/10/17 02:30:09;;;;;;;29.33;18.10;;;;;;;13.40;68.13;99513.63;5070820;28;20125;-73
2022/10/17 02:32:46;;;;;;;29.65;18.00;;;;;;;13.37;68.33;99511.47;5071326;28;20025;-72
2022/10/17 02:35:14;;;;;;;32.30;18.70;;;;;;;13.33;67.98;99521.41;5071084;28;20029;-72
2022/10/17 02:37:43;;;;;;;25.67;16.95;;;;;;;13.29;67.94;99514.81;5053058;28;20028;-72
2022/10/17 02:40:10;;;;;;;24.47;16.27;;;;;;;13.23;68.06;99514.06;5070942;28;20036;-72
2022/10/17 02:42:36;;;;;;;19.80;14.15;;;;;;;13.20;68.01;99516.56;5071615;28;20451;-72
2022/10/17 02:45:04;;;;;;;18.95;13.68;;;;;;;13.15;68.02;99514.66;5070997;28;20529;-72
2022/10/17 02:47:35;;;;;;;19.50;12.75;;;;;;;13.09;68.13;99524.91;5071032;28;20032;-72
2022/10/17 02:50:01;;;;;;;18.52;11.68;;;;;;;13.06;68.26;99524.66;5070499;28;20060;-73
2022/10/17 02:52:34;;;;;;;18.90;12.13;;;;;;;13.01;68.38;99522.75;5070606;28;20055;-72
2022/10/17 02:55:02;;;;;;;22.15;12.75;;;;;;;12.97;68.05;99518.13;5070298;28;20081;-72
2022/10/17 02:57:41;;;;;;;18.52;12.50;;;;;;;12.94;68.24;99522.25;5070795;28;20032;-72
2022/10/17 03:00:10;;;;;;;19.52;13.23;;;;;;;12.92;68.38;99521.72;5070380;28;20463;-71
2022/10/17 03:02:44;;;;;;;19.77;13.05;;;;;;;12.89;68.32;99519.53;5070736;28;20090;-72
2022/10/17 03:05:11;;;;;;;18.90;12.63;;;;;;;12.86;68.41;99520.94;5070233;28;20085;-72
2022/10/17 03:07:37;;;;;;;21.30;13.50;;;;;;;12.84;68.27;99530.59;5070600;28;20036;-72
2022/10/17 03:10:03;;;;;;;23.23;15.05;;;;;;;12.81;68.52;99540.25;5070336;28;20027;-72
2022/10/17 03:12:28;;;;;;;21.63;14.93;;;;;;;12.77;68.31;99537.25;5070600;28;20036;-72
2022/10/17 03:14:53;;;;;;;23.65;14.50;;;;;;;12.76;68.44;99537.50;5070396;28;20075;-72
2022/10/17 03:17:19;;;;;;;21.17;13.63;;;;;;;12.75;68.37;99544.13;5070636;28;20533;-72
2022/10/17 03:19:44;;;;;;;19.85;13.23;;;;;;;12.71;68.72;99546.63;5070049;28;20382;-72
2022/10/17 03:22:09;;;;;;;18.23;11.77;;;;;;;12.71;68.71;99548.56;5071090;28;20046;-72
2022/10/17 03:24:35;;;;;;;19.80;12.50;;;;;;;12.69;68.83;99553.50;5071101;28;20390;-72
2022/10/17 03:27:00;;;;;;;20.15;12.50;;;;;;;12.69;68.71;99553.50;5053190;28;20056;-72
2022/10/17 03:29:25;;;;;;;18.42;11.77;;;;;;;12.69;68.99;99551.59;5079797;28;20074;-72
2022/10/17 03:31:51;;;;;;;18.00;11.70;;;;;;;12.68;69.01;99557.38;5091316;28;20074;-72
2022/10/17 03:34:17;;;;;;;17.67;10.95;;;;;;;12.67;68.91;99551.06;5073615;28;20024;-71
2022/10/17 03:36:43;;;;;;;16.23;11.10;;;;;;;12.67;69.04;99556.56;5070052;28;20036;-71
2022/10/17 03:39:08;;;;;;;16.77;10.50;;;;;;;12.69;69.50;99554.34;5069997;28;20394;-71
2022/10/17 03:41:34;;;;;;;15.63;10.10;;;;;;;12.69;69.38;99557.09;5070209;28;20024;-72
2022/10/17 03:43:59;;;;;;;14.95;9.77;;;;;;;12.71;69.59;99560.41;5070169;28;20150;-72
2022/10/17 03:46:25;;;;;;;15.43;10.80;;;;;;;12.75;69.42;99564.22;5053079;28;20051;-72
2022/10/17 03:48:50;;;;;;;14.23;9.48;;;;;;;12.74;69.33;99565.34;5070507;28;20493;-72
2022/10/17 03:51:16;;;;;;;16.85;10.57;;;;;;;12.76;69.38;99562.28;5052490;28;20024;-72
2022/10/17 03:53:41;;;;;;;17.77;10.68;;;;;;;12.77;69.43;99559.28;5070383;28;20116;-72
2022/10/17 03:56:19;;;;;;;16.65;10.38;;;;;;;12.80;69.30;99557.88;5070874;28;20029;-72
2022/10/17 03:58:44;;;;;;;15.90;10.48;;;;;;;12.82;69.44;99563.09;5071017;28;20565;-72
2022/10/17 04:01:12;;;;;;;16.17;10.30;;;;;;;12.82;69.43;99560.34;5070020;28;20111;-72
2022/10/17 04:03:38;;;;;;;16.63;9.98;;;;;;;12.83;69.30;99559.25;5070248;28;20035;-72
2022/10/17 04:06:04;;;;;;;15.32;10.55;;;;;;;12.78;69.46;99558.16;5070530;28;20024;-71
2022/10/17 04:08:30;;;;;;;16.50;10.88;;;;;;;12.78;69.27;99566.41;5074972;28;20077;-72
2022/10/17 04:11:00;;;;;;;18.88;10.60;;;;;;;12.78;69.17;99562.81;5070218;28;20025;-72
2022/10/17 04:13:25;;;;;;;16.92;11.25;;;;;;;12.79;69.46;99561.72;5070769;28;20086;-72
2022/10/17 04:15:58;;;;;;;16.15;10.27;;;;;;;12.79;69.36;99554.31;5074302;28;20024;-72
2022/10/17 04:18:24;;;;;;;15.80;11.27;;;;;;;12.81;69.50;99565.03;5075182;28;20056;-72
2022/10/17 04:20:49;;;;;;;19.42;11.75;;;;;;;12.83;69.35;99562.81;5073875;28;20027;-72
2022/10/17 04:23:15;;;;;;;20.40;12.43;;;;;;;12.84;69.50;99567.19;5074516;28;20099;-72
2022/10/17 04:25:40;;;;;;;18.42;12.88;;;;;;;12.85;69.46;99565.25;5074379;28;20060;-72
2022/10/17 04:28:06;;;;;;;20.10;12.60;;;;;;;12.84;69.49;99569.97;5076860;28;20016;-72
2022/10/17 04:30:31;;;;;;;19.45;13.02;;;;;;;12.85;69.60;99568.00;5094197;28;20085;-71
2022/10/17 04:32:57;;;;;;;20.30;12.48;;;;;;;12.85;69.09;99568.00;5094231;28;20032;-72
2022/10/17 04:35:22;;;;;;;19.05;12.07;;;;;;;12.84;69.27;99566.41;5093905;28;20032;-72
2022/10/17 04:37:47;;;;;;;18.33;12.05;;;;;;;12.86;69.21;99566.91;5094615;28;20122;-73
2022/10/17 04:40:13;;;;;;;21.90;14.32;;;;;;;12.85;69.19;99568.00;5094272;28;20028;-72
2022/10/17 04:42:38;;;;;;;20.38;13.75;;;;;;;12.85;69.14;99565.25;5094665;28;20027;-72
2022/10/17 04:45:04;;;;;;;20.38;14.35;;;;;;;12.84;69.37;99561.69;5094531;28;20485;-72
2022/10/17 04:47:30;;;;;;;19.35;13.75;;;;;;;12.84;69.31;99561.69;5094739;28;20043;-72
2022/10/17 04:49:55;;;;;;;21.75;15.32;;;;;;;12.83;69.25;99562.81;5094077;28;20032;-72
2022/10/17 04:52:20;;;;;;;23.38;15.18;;;;;;;12.84;69.06;99558.13;5097346;28;20684;-72
2022/10/17 04:54:46;;;;;;;20.73;13.82;;;;;;;12.83;69.15;99562.81;5097395;28;20036;-72
2022/10/17 04:57:11;;;;;;;22.45;14.32;;;;;;;12.84;69.47;99564.44;5095959;28;20067;-71
2022/10/17 04:59:37;;;;;;;23.55;14.70;;;;;;;12.81;69.12;99567.78;5093645;28;20120;-72
2022/10/17 05:02:02;;;;;;;24.33;15.10;;;;;;;12.80;68.98;99569.72;5094327;28;20074;-72
2022/10/17 05:04:27;;;;;;;22.02;13.75;;;;;;;12.80;69.12;99568.88;5093831;28;20032;-72
2022/10/17 05:06:53;;;;;;;18.30;12.90;;;;;;;12.79;69.00;99579.09;5093553;28;20077;-71
2022/10/17 05:09:18;;;;;;;20.75;13.98;;;;;;;12.80;69.21;99575.22;5093121;28;20032;-71
2022/10/17 05:11:43;;;;;;;19.90;14.40;;;;;;;12.81;69.03;99584.28;5077879;28;20104;-71
2022/10/17 05:14:09;;;;;;;20.85;14.57;;;;;;;12.79;69.13;99573.56;5072965;28;20064;-72
2022/10/17 05:16:34;;;;;;;30.02;19.77;;;;;;;12.77;69.30;99581.28;5073195;28;20031;-71
2022/10/17 05:19:00;;;;;;;37.67;25.33;;;;;;;12.77;69.34;99583.19;5073334;28;20028;-72
2022/10/17 05:21:27;;;;;;;50.97;33.33;;;;;;;12.77;68.89;99575.78;5072884;28;20028;-72
2022/10/17 05:23:53;;;;;;;51.50;32.83;;;;;;;12.79;69.23;99575.50;5072955;28;20442;-72
2022/10/17 05:26:19;;;;;;;46.13;30.10;;;;;;;12.80;69.26;99579.88;5072303;28;20060;-72
2022/10/17 05:28:44;;;;;;;34.45;24.50;;;;;;;12.81;68.99;99581.53;5076350;28;21671;-71
2022/10/17 05:31:10;;;;;;;28.63;21.33;;;;;;;12.80;69.29;99579.88;5092880;28;20371;-72
2022/10/17 05:33:37;;;;;;;27.25;16.20;;;;;;;12.81;69.30;99584.28;5093029;28;20028;-72
2022/10/17 05:36:03;;;;;;;20.05;14.32;;;;;;;12.80;69.30;99593.66;5093215;28;20088;-71
2022/10/17 05:38:28;;;;;;;18.48;11.75;;;;;;;12.79;68.99;99595.59;5093638;28;20031;-72
2022/10/17 05:41:02;;;;;;;17.83;10.77;;;;;;;12.79;69.32;99600.25;5092652;28;20024;-71
2022/10/17 05:43:28;;;;;;;17.25;10.07;;;;;;;12.82;69.29;99594.19;5093155;28;20100;-72
2022/10/17 05:45:54;;;;;;;16.38;9.55;;;;;;;12.85;69.39;99599.13;5093310;28;20036;-72
2022/10/17 05:48:20;;;;;;;16.95;10.38;;;;;;;12.89;69.44;99613.16;5092890;28;20032;-71
2022/10/17 05:50:46;;;;;;;15.05;9.63;;;;;;;12.91;69.03;99613.69;5091437;28;20020;-71
2022/10/17 05:53:11;;;;;;;15.52;9.90;;;;;;;12.97;69.18;99617.25;5077770;28;20086;-72
2022/10/17 05:55:36;;;;;;;15.90;9.85;;;;;;;12.99;68.97;99615.03;5092295;28;20021;-72
2022/10/17 05:58:02;;;;;;;16.90;10.27;;;;;;;13.00;69.19;99614.75;5092431;28;20020;-71
2022/10/17 06:00:28;;;;;;;16.38;9.85;;;;;;;13.04;69.37;99613.06;5092699;28;20028;-72
2022/10/17 06:02:53;;;;;;;15.65;10.02;;;;;;;13.08;69.22;99613.31;5092663;28;20110;-72
2022/10/17 06:05:19;;;;;;;15.63;8.85;;;;;;;13.15;69.25;99619.34;5092601;28;20028;-72
2022/10/17 06:07:47;;;;;;;16.55;9.85;;;;;;;13.18;69.25;99626.22;5074566;28;20554;-72
2022/10/17 06:10:15;;;;;;;15.32;9.32;;;;;;;13.21;69.25;99626.47;5087200;28;20029;-72
2022/10/17 06:12:41;;;;;;;17.92;10.75;;;;;;;13.21;69.14;99626.47;5072120;28;20062;-72
2022/10/17 06:15:07;;;;;;;14.30;9.85;;;;;;;13.24;69.08;99630.59;5071895;28;20103;-72
2022/10/17 06:17:33;;;;;;;15.85;9.80;;;;;;;13.27;69.06;99627.25;5072683;28;20028;-72
2022/10/17 06:19:58;;;;;;;16.35;10.63;;;;;;;13.30;69.22;99632.19;5072128;28;20082;-72
2022/10/17 06:22:24;;;;;;;16.63;10.43;;;;;;;13.33;68.94;99631.63;5071899;28;20033;-72
2022/10/17 06:24:49;;;;;;;16.52;9.88;;;;;;;13.36;69.06;99642.06;5072197;28;20039;-72
2022/10/17 06:27:14;;;;;;;17.17;10.40;;;;;;;13.38;69.06;99642.59;5072510;28;20024;-72
2022/10/17 06:29:40;;;;;;;14.75;9.93;;;;;;;13.40;68.87;99645.91;5086576;28;20048;-71
2022/10/17 06:32:06;;;;;;;17.38;9.88;;;;;;;13.44;68.94;99645.38;5092579;28;20473;-72
2022/10/17 06:34:31;;;;;;;16.17;10.32;;;;;;;13.46;68.68;99643.16;5087622;28;20025;-72
2022/10/17 06:36:56;;;;;;;14.68;9.90;;;;;;;13.47;68.98;99642.84;5064995;28;20025;-72
2022/10/17 06:39:23;;;;;;;16.48;10.13;;;;;;;13.50;68.94;99645.03;5069188;28;20032;-72
2022/10/17 06:41:49;;;;;;;17.10;10.68;;;;;;;13.53;69.00;99644.47;5083232;28;20032;-72
2022/10/17 06:44:15;;;;;;;17.15;10.85;;;;;;;13.55;68.98;99652.47;5091481;28;20020;-72
2022/10/17 06:46:40;;;;;;;17.20;10.85;;;;;;;13.61;69.24;99653.22;5091967;28;20032;-71
2022/10/17 06:49:08;;;;;;;16.35;10.82;;;;;;;13.63;68.97;99662.03;5080362;28;20705;-72
2022/10/17 06:51:35;;;;;;;17.75;11.02;;;;;;;13.70;68.92;99662.53;5089760;28;20036;-73
2022/10/17 06:54:01;;;;;;;16.45;10.13;;;;;;;13.75;69.12;99659.75;5090987;28;20028;-73
2022/10/17 06:56:26;;;;;;;16.05;10.35;;;;;;;13.82;68.89;99671.28;5091161;28;20032;-73
2022/10/17 06:58:53;;;;;;;16.30;10.23;;;;;;;13.88;69.24;99665.69;5091405;28;20048;-72
2022/10/17 07:01:18;;;;;;;19.33;10.68;;;;;;;13.93;68.93;99668.41;5090800;28;20027;-72
2022/10/17 07:03:46;;;;;;;17.00;10.20;;;;;;;13.98;68.87;99679.41;5075452;28;20024;-72
2022/10/17 07:06:12;;;;;;;16.90;9.85;;;;;;;14.04;68.86;99688.47;5070994;28;20032;-72
2022/10/17 07:08:42;;;;;;;17.70;10.57;;;;;;;14.08;68.88;99682.06;5071113;28;20035;-72
2022/10/17 07:11:16;;;;;;;19.23;9.88;;;;;;;14.15;68.91;99684.50;5070737;28;20029;-72
2022/10/17 07:13:42;;;;;;;14.75;9.07;;;;;;;14.20;68.57;99687.22;5066270;28;20481;-73
2022/10/17 07:16:08;;;;;;;17.52;10.05;;;;;;;14.25;68.54;99683.59;5050214;28;20108;-72
2022/10/17 07:18:33;;;;;;;17.42;9.63;;;;;;;14.31;68.48;99685.16;5055950;28;20052;-70
2022/10/17 07:20:59;;;;;;;16.20;9.43;;;;;;;14.37;68.37;99675.72;5066835;28;20083;-71
2022/10/17 07:23:25;;;;;;;16.42;10.45;;;;;;;14.44;68.55;99681.72;5083948;28;20486;-72
2022/10/17 07:25:50;;;;;;;15.35;10.02;;;;;;;14.51;68.35;99684.13;5066226;28;20020;-72
2022/10/17 07:28:16;;;;;;;13.63;9.30;;;;;;;14.57;68.41;99693.19;5068929;28;20481;-72
2022/10/17 07:30:41;;;;;;;14.70;9.23;;;;;;;14.65;68.53;99691.72;5065180;28;20024;-72
2022/10/17 07:33:07;;;;;;;16.00;9.63;;;;;;;14.72;68.43;99697.75;5073742;28;20025;-71
2022/10/17 07:35:32;;;;;;;16.25;9.82;;;;;;;14.79;68.48;99695.47;5067048;28;20025;-72
2022/10/17 07:37:58;;;;;;;16.92;10.10;;;;;;;14.84;68.14;99689.88;5066978;28;20024;-72
2022/10/17 07:40:23;;;;;;;16.75;10.18;;;;;;;14.92;68.25;99695.84;5049509;28;20024;-71
2022/10/17 07:42:49;;;;;;;16.88;9.90;;;;;;;14.96;67.97;99699.69;5069078;28;20496;-72
2022/10/17 07:45:14;;;;;;;13.85;9.48;;;;;;;15.02;67.71;99692.97;5079378;28;20029;-73
2022/10/17 07:47:40;;;;;;;13.95;9.18;;;;;;;15.07;67.90;99687.38;5069107;28;20033;-72
2022/10/17 07:50:06;;;;;;;15.30;9.50;;;;;;;15.14;67.15;99689.78;5068499;28;20028;-72
2022/10/17 07:52:32;;;;;;;14.05;8.73;;;;;;;15.20;67.16;99687.78;5066071;28;20028;-72
2022/10/17 07:54:57;;;;;;;14.50;8.63;;;;;;;15.25;67.26;99691.28;5064834;28;20390;-71
2022/10/17 07:57:22;;;;;;;14.27;8.93;;;;;;;15.32;66.96;99691.75;5076063;28;20081;-71
2022/10/17 07:59:49;;;;;;;14.45;8.75;;;;;;;15.39;67.26;99690.56;5087868;28;20397;-70
2022/10/17 08:02:22;;;;;;;14.35;9.40;;;;;;;15.44;66.90;99691.31;5067714;28;20052;-70
2022/10/17 08:04:47;;;;;;;13.70;8.80;;;;;;;15.51;67.26;99695.66;5062983;28;20027;-73
2022/10/17 08:07:14;;;;;;;13.45;8.98;;;;;;;15.56;66.52;99693.63;5076910;28;20024;-75
2022/10/17 08:09:40;;;;;;;17.42;8.85;;;;;;;15.61;66.62;99698.25;5073424;28;20028;-72
2022/10/17 08:12:06;;;;;;;13.93;8.23;;;;;;;15.66;66.26;99700.97;5069409;28;20039;-71
2022/10/17 08:14:31;;;;;;;16.63;8.90;;;;;;;15.71;66.13;99689.78;5066673;28;20482;-71
2022/10/17 08:16:57;;;;;;;14.43;8.75;;;;;;;15.76;66.35;99691.69;5070459;28;20032;-73
2022/10/17 08:19:22;;;;;;;13.77;7.88;;;;;;;15.83;66.30;99696.81;5056778;28;20030;-71
2022/10/17 08:21:48;;;;;;;14.02;7.68;;;;;;;15.89;66.40;99695.66;5047989;28;20028;-71
2022/10/17 08:24:14;;;;;;;13.57;8.02;;;;;;;15.96;66.03;99698.84;5070381;28;20119;-72
2022/10/17 08:26:40;;;;;;;15.77;8.65;;;;;;;16.02;65.91;99699.56;5061064;28;20111;-72
2022/10/17 08:29:05;;;;;;;14.32;8.98;;;;;;;16.09;66.24;99701.97;5058920;28;20375;-74
2022/10/17 08:31:31;;;;;;;16.63;8.85;;;;;;;16.18;65.79;99709.28;5077531;28;20055;-74
2022/10/17 08:33:56;;;;;;;16.15;8.70;;;;;;;16.25;65.17;99697.81;5067358;28;20032;-73
2022/10/17 08:36:21;;;;;;;14.35;7.80;;;;;;;16.30;65.17;99705.22;5086451;28;20028;-72
2022/10/17 08:38:47;;;;;;;13.60;8.55;;;;;;;16.38;65.52;99696.19;5076088;28;20029;-72
2022/10/17 08:41:34;;;;;;;13.77;7.68;;;;;;;16.47;65.06;99707.41;5075704;28;20020;-71
2022/10/17 08:44:18;;;;;;;12.40;7.93;;;;;;;16.56;65.10;99710.28;5072373;28;20051;-72
2022/10/17 08:46:47;;;;;;;14.32;8.07;;;;;;;16.63;65.25;99710.69;5066579;28;20029;-72
2022/10/17 08:49:40;;;;;;;15.50;8.23;;;;;;;16.70;63.86;99711.13;5049350;28;20033;-73
2022/10/17 08:52:34;;;;;;;12.82;8.10;;;;;;;16.77;64.21;99714.28;5074069;28;20517;-73
2022/10/17 08:55:00;;;;;;;12.23;7.80;;;;;;;16.86;64.34;99719.13;5055692;28;20051;-73
2022/10/17 08:57:27;;;;;;;16.17;9.10;;;;;;;16.92;63.89;99710.38;5068291;28;20025;-73
2022/10/17 08:59:53;;;;;;;12.90;7.82;;;;;;;17.00;63.77;99719.13;5063051;28;20100;-73
2022/10/17 09:02:45;;;;;;;15.48;7.97;;;;;;;17.06;63.58;99709.59;5067144;28;20036;-73
2022/10/17 09:05:32;;;;;;;14.00;8.18;;;;;;;17.13;63.63;99711.94;5071306;28;20020;-74
2022/10/17 09:08:25;;;;;;;12.27;7.78;;;;;;;17.19;63.62;99719.84;5070495;28;20037;-73
2022/10/17 09:11:05;;;;;;;11.77;7.50;;;;;;;17.28;63.04;99714.41;5067454;28;20043;-72
2022/10/17 09:13:53;;;;;;;14.05;7.72;;;;;;;17.36;63.32;99708.13;5074702;28;20382;-72
2022/10/17 09:16:33;;;;;;;11.88;7.70;;;;;;;17.43;63.28;99716.00;5072870;28;20039;-72
2022/10/17 09:19:06;;;;;;;12.10;7.43;;;;;;;17.49;63.13;99714.75;5071508;28;20040;-71
2022/10/17 09:21:47;;;;;;;12.30;7.40;;;;;;;17.55;63.09;99715.47;5079031;28;20554;-72
2022/10/17 09:24:45;;;;;;;11.73;7.13;;;;;;;17.61;61.85;99708.66;5091174;28;20036;-71
2022/10/17 09:27:22;;;;;;;13.52;7.65;;;;;;;17.68;62.55;99708.25;5047618;28;20045;-72
2022/10/17 09:29:54;;;;;;;11.13;7.05;;;;;;;17.75;62.07;99707.81;5058547;28;20069;-72
2022/10/17 09:32:24;;;;;;;11.63;7.38;;;;;;;17.83;62.53;99707.06;5055693;28;20107;-71
2022/10/17 09:34:53;;;;;;;10.60;7.38;;;;;;;17.89;62.61;99711.38;5057752;28;20041;-71
2022/10/17 09:37:25;;;;;;;13.50;7.78;;;;;;;17.94;62.19;99708.44;5074954;28;20032;-73
2022/10/17 09:39:50;;;;;;;11.20;7.53;;;;;;;18.00;61.74;99717.50;5070855;28;20113;-70
2022/10/17 09:42:20;;;;;;;15.55;8.02;;;;;;;18.06;61.63;99713.47;5084132;28;20110;-70
2022/10/17 09:44:56;;;;;;;15.00;7.88;;;;;;;18.12;61.75;99712.22;5090861;28;20020;-70
2022/10/17 09:47:30;;;;;;;12.93;7.88;;;;;;;18.17;61.76;99711.25;5068573;28;20085;-70
2022/10/17 09:49:56;;;;;;;13.18;7.88;;;;;;;18.25;61.47;99718.00;5069979;28;20024;-71
2022/10/17 09:52:46;;;;;;;12.25;7.32;;;;;;;18.30;61.42;99715.94;5071488;28;20032;-76
2022/10/17 09:55:21;;;;;;;10.77;7.28;;;;;;;18.38;61.28;99713.50;5067317;28;20549;-71
2022/10/17 09:57:58;;;;;;;11.52;7.72;;;;;;;18.42;61.01;99709.78;5067368;28;20390;-74
2022/10/17 10:00:27;;;;;;;11.25;7.35;;;;;;;18.48;60.31;99715.19;5076367;28;20052;-72
2022/10/17 10:03:11;;;;;;;15.48;7.75;;;;;;;18.51;60.28;99714.56;5073959;28;20169;-73
2022/10/17 10:05:38;;;;;;;15.10;7.22;;;;;;;18.56;60.13;99712.47;5061970;28;20047;-71
2022/10/17 10:08:15;;;;;;;11.80;7.20;;;;;;;18.60;60.30;99704.28;5072730;28;20597;-71
2022/10/17 10:10:42;;;;;;;10.48;7.30;;;;;;;18.66;60.09;99705.78;5070100;28;20441;-71
2022/10/17 10:13:14;;;;;;;11.95;6.82;;;;;;;18.73;60.16;99714.50;5063478;28;20033;-72
2022/10/17 10:15:41;;;;;;;13.20;6.80;;;;;;;18.83;60.27;99712.59;5070470;28;20476;-72
2022/10/17 10:18:25;;;;;;;11.60;6.90;;;;;;;18.89;60.10;99714.06;5070201;28;20028;-73
2022/10/17 10:21:08;;;;;;;9.88;7.10;;;;;;;18.96;60.25;99711.66;5063387;28;20027;-72
2022/10/17 10:23:38;;;;;;;11.40;7.20;;;;;;;19.03;59.85;99716.75;5059244;28;20083;-73
2022/10/17 10:26:11;;;;;;;11.52;6.93;;;;;;;19.12;59.90;99708.44;5062785;28;20028;-73
2022/10/17 10:28:37;;;;;;;11.75;6.80;;;;;;;19.16;59.23;99701.91;5070992;28;20497;-71
2022/10/17 10:31:06;;;;;;;11.05;7.40;;;;;;;19.23;59.24;99709.78;5072120;28;20027;-72
2022/10/17 10:33:35;;;;;;;13.20;7.07;;;;;;;19.27;59.34;99709.94;5069975;28;20056;-72
2022/10/17 10:36:06;;;;;;;11.50;7.15;;;;;;;19.33;59.33;99708.66;5067594;28;20446;-70
2022/10/17 10:38:33;;;;;;;9.63;6.43;;;;;;;19.37;58.99;99709.66;5051600;28;20035;-69
2022/10/17 10:41:04;;;;;;;10.23;7.47;;;;;;;19.45;59.03;99708.00;5050305;28;20067;-71
2022/10/17 10:43:48;;;;;;;13.05;6.80;;;;;;;19.53;59.06;99700.84;5046408;28;20041;-71
2022/10/17 10:46:24;;;;;;;13.52;6.82;;;;;;;19.61;58.77;99700.00;5079267;28;20020;-71
2022/10/17 10:48:49;;;;;;;9.85;6.70;;;;;;;19.68;58.45;99699.53;5069926;28;20021;-70
2022/10/17 10:51:21;;;;;;;10.13;6.53;;;;;;;19.71;58.48;99699.69;5069439;28;20388;-70
2022/10/17 10:54:11;;;;;;;8.90;6.75;;;;;;;19.76;58.44;99696.75;5069673;28;20040;-72
2022/10/17 10:56:42;;;;;;;9.85;6.50;;;;;;;19.85;58.37;99693.13;5067035;28;20024;-72
2022/10/17 10:59:17;;;;;;;13.15;6.72;;;;;;;19.89;57.92;99692.19;5066807;28;20555;-74
2022/10/17 11:01:46;;;;;;;9.88;6.57;;;;;;;19.97;57.91;99695.28;5068197;28;20032;-75
2022/10/17 11:04:20;;;;;;;8.60;6.55;;;;;;;20.01;57.08;99685.94;5067024;28;20497;-72
2022/10/17 11:06:48;;;;;;;12.27;6.72;;;;;;;20.06;57.24;99685.75;5067069;28;20427;-71
2022/10/17 11:09:39;;;;;;;12.13;7.05;;;;;;;20.11;57.22;99690.34;5058116;28;20029;-72
2022/10/17 11:12:15;;;;;;;11.38;6.90;;;;;;;20.19;56.96;99683.13;5066565;28;20112;-71
2022/10/17 11:14:52;;;;;;;9.57;6.93;;;;;;;20.26;57.49;99688.19;5069551;28;20479;-73
2022/10/17 11:17:30;;;;;;;10.85;6.32;;;;;;;20.30;57.03;99684.41;5068222;28;20483;-71
2022/10/17 11:19:59;;;;;;;10.02;6.07;;;;;;;20.36;56.94;99680.31;5066346;28;20478;-71
2022/10/17 11:22:37;;;;;;;8.93;6.95;;;;;;;20.45;56.87;99679.44;5075066;28;20039;-73
2022/10/17 11:25:21;;;;;;;11.10;7.35;;;;;;;20.50;57.00;99682.03;5061553;28;20119;-73
2022/10/17 11:27:46;;;;;;;10.70;6.80;;;;;;;20.55;56.32;99683.84;5061988;28;20035;-72
2022/10/17 11:30:13;;;;;;;10.88;7.80;;;;;;;20.60;56.74;99689.22;5065260;28;20040;-72
2022/10/17 11:32:44;;;;;;;10.90;7.35;;;;;;;20.64;55.86;99682.66;5086153;28;20454;-72
2022/10/17 11:35:25;;;;;;;12.63;7.82;;;;;;;20.69;56.40;99678.84;5068574;28;20034;-72